createdAt,value
2023-02-13T00:01:36.076Z,9.37
2023-02-13T00:04:05.590Z,9.37
2023-02-13T00:06:34.349Z,9.90
2023-02-13T00:09:05.758Z,10.00
2023-02-13T00:11:35.152Z,9.83
2023-02-13T00:14:03.998Z,10.67
2023-02-13T00:16:32.744Z,10.70
2023-02-13T00:19:04.119Z,10.23
2023-02-13T00:21:32.895Z,10.20
2023-02-13T00:24:01.781Z,10.03
2023-02-13T00:26:30.566Z,10.27
2023-02-13T00:28:59.374Z,8.83
2023-02-13T00:31:28.260Z,9.07
2023-02-13T00:33:57.047Z,8.90
2023-02-13T00:36:27.483Z,9.27
2023-02-13T00:38:56.606Z,8.30
2023-02-13T00:41:25.872Z,8.17
2023-02-13T00:43:54.730Z,8.37
2023-02-13T00:46:24.487Z,8.03
2023-02-13T00:48:55.069Z,8.23
2023-02-13T00:51:23.831Z,8.27
2023-02-13T00:53:54.559Z,7.93
2023-02-13T00:56:23.397Z,8.10
2023-02-13T00:58:52.125Z,8.33
2023-02-13T01:01:20.903Z,8.40
2023-02-13T01:03:49.676Z,7.80
2023-02-13T01:06:18.572Z,8.47
2023-02-13T01:08:47.292Z,8.70
2023-02-13T01:11:19.312Z,6.83
2023-02-13T01:13:48.286Z,7.97
2023-02-13T01:16:18.043Z,7.73
2023-02-13T01:18:46.894Z,7.20
2023-02-13T01:21:19.268Z,7.40
2023-02-13T01:23:48.596Z,8.00
2023-02-13T01:26:24.281Z,7.20
2023-02-13T01:28:55.559Z,6.77
2023-02-13T01:31:24.865Z,7.33
2023-02-13T01:33:53.956Z,7.23
2023-02-13T01:36:24.410Z,7.83
2023-02-13T01:38:55.807Z,7.77
2023-02-13T01:41:29.043Z,7.73
2023-02-13T01:44:00.328Z,8.17
2023-02-13T01:46:33.052Z,8.23
2023-02-13T01:49:11.330Z,8.43
2023-02-13T01:51:41.732Z,8.67
2023-02-13T01:54:14.565Z,8.50
2023-02-13T01:56:48.577Z,8.50
2023-02-13T01:59:21.152Z,8.03
2023-02-13T02:01:51.496Z,9.07
2023-02-13T02:04:23.757Z,8.93
2023-02-13T02:06:57.146Z,9.57
2023-02-13T02:09:33.891Z,9.50
2023-02-13T02:12:08.079Z,9.20
2023-02-13T02:14:41.594Z,8.70
2023-02-13T02:17:13.280Z,8.90
2023-02-13T02:19:48.204Z,10.20
2023-02-13T02:22:51.226Z,11.43
2023-02-13T02:25:47.054Z,10.13
2023-02-13T02:28:47.825Z,10.23
2023-02-13T02:31:49.323Z,10.40
2023-02-13T02:34:27.195Z,12.60
2023-02-13T02:37:11.479Z,11.83
2023-02-13T02:39:48.831Z,10.67
2023-02-13T02:42:30.120Z,10.83
2023-02-13T02:45:08.871Z,10.20
2023-02-13T02:48:07.461Z,11.23
2023-02-13T02:50:41.989Z,10.77
2023-02-13T02:53:19.460Z,11.63
2023-02-13T02:55:55.534Z,11.17
2023-02-13T02:59:02.133Z,12.00
2023-02-13T03:01:59.343Z,10.73
2023-02-13T03:04:52.412Z,11.20
2023-02-13T03:07:22.000Z,11.27
2023-02-13T03:10:11.405Z,11.80
2023-02-13T03:13:00.698Z,12.67
2023-02-13T03:15:30.664Z,12.63
2023-02-13T03:18:17.719Z,12.50
2023-02-13T03:21:22.669Z,11.87
2023-02-13T03:24:01.305Z,12.57
2023-02-13T03:26:50.115Z,12.57
2023-02-13T03:29:50.957Z,13.43
2023-02-13T03:32:26.990Z,11.77
2023-02-13T03:35:23.254Z,12.33
2023-02-13T03:37:59.247Z,13.43
2023-02-13T03:40:34.919Z,12.97
2023-02-13T03:43:10.611Z,13.23
2023-02-13T03:45:54.631Z,14.37
2023-02-13T03:48:44.270Z,14.90
2023-02-13T03:51:17.611Z,13.63
2023-02-13T03:53:52.582Z,14.40
2023-02-13T03:56:40.398Z,14.03
2023-02-13T03:59:17.435Z,16.57
2023-02-13T04:01:52.474Z,16.10
2023-02-13T04:04:28.838Z,16.53
2023-02-13T04:07:01.455Z,16.60
2023-02-13T04:09:33.446Z,15.40
2023-02-13T04:12:10.082Z,15.63
2023-02-13T04:14:44.219Z,16.97
2023-02-13T04:17:17.970Z,15.87
2023-02-13T04:19:46.822Z,15.87
2023-02-13T04:22:15.591Z,15.23
2023-02-13T04:24:45.834Z,14.57
2023-02-13T04:27:16.651Z,13.87
2023-02-13T04:29:45.890Z,13.80
2023-02-13T04:32:17.031Z,13.37
2023-02-13T04:34:45.763Z,13.00
2023-02-13T04:37:14.546Z,11.87
2023-02-13T04:39:43.260Z,12.27
2023-02-13T04:42:13.485Z,12.20
2023-02-13T04:44:42.272Z,12.10
2023-02-13T04:47:11.011Z,11.77
2023-02-13T04:49:39.847Z,11.80
2023-02-13T04:52:08.623Z,12.57
2023-02-13T04:54:37.386Z,13.27
2023-02-13T04:57:06.141Z,11.23
2023-02-13T04:59:36.275Z,12.67
2023-02-13T05:02:05.259Z,12.63
2023-02-13T05:04:34.512Z,13.33
2023-02-13T05:07:03.339Z,13.60
2023-02-13T05:09:32.319Z,13.53
2023-02-13T05:12:01.060Z,14.63
2023-02-13T05:14:29.856Z,15.47
2023-02-13T05:16:59.939Z,15.63
2023-02-13T05:19:28.760Z,16.37
2023-02-13T05:22:15.320Z,16.17
2023-02-13T05:24:44.123Z,17.07
2023-02-13T05:27:12.835Z,17.50
2023-02-13T05:29:41.556Z,17.07
2023-02-13T05:32:11.768Z,17.63
2023-02-13T05:34:40.641Z,17.17
2023-02-13T05:37:09.375Z,18.50
2023-02-13T05:39:38.154Z,17.90
2023-02-13T05:42:07.264Z,18.50
2023-02-13T05:44:36.000Z,18.50
2023-02-13T05:47:05.572Z,19.17
2023-02-13T05:49:36.459Z,18.00
2023-02-13T05:52:05.611Z,19.63
2023-02-13T05:54:34.386Z,19.20
2023-02-13T05:57:03.521Z,19.60
2023-02-13T05:59:32.317Z,19.33
2023-02-13T06:02:03.423Z,18.80
2023-02-13T06:04:32.232Z,18.13
2023-02-13T06:07:02.383Z,18.70
2023-02-13T06:09:31.108Z,19.53
2023-02-13T06:11:59.906Z,17.73
2023-02-13T06:14:28.622Z,18.80
2023-02-13T06:16:57.466Z,17.67
2023-02-13T06:19:26.226Z,18.07
2023-02-13T06:21:55.030Z,18.27
2023-02-13T06:24:25.297Z,18.37
2023-02-13T06:26:54.087Z,18.97
2023-02-13T06:29:22.811Z,18.00
2023-02-13T06:31:51.573Z,18.67
2023-02-13T06:34:20.383Z,21.10
2023-02-13T06:36:49.606Z,18.47
2023-02-13T06:39:18.322Z,17.90
2023-02-13T06:41:48.543Z,19.13
2023-02-13T06:44:17.382Z,17.17
2023-02-13T06:46:46.141Z,19.23
2023-02-13T06:49:15.150Z,18.70
2023-02-13T06:51:43.841Z,18.03
2023-02-13T06:54:12.579Z,17.47
2023-02-13T06:56:41.424Z,17.93
2023-02-13T06:59:11.589Z,18.77
2023-02-13T07:01:40.419Z,18.23
2023-02-13T07:04:09.128Z,18.57
2023-02-13T07:06:37.943Z,16.93
2023-02-13T07:09:06.832Z,18.03
2023-02-13T07:11:35.815Z,17.00
2023-02-13T07:14:04.547Z,18.17
2023-02-13T07:16:35.103Z,17.37
2023-02-13T07:19:03.959Z,16.87
2023-02-13T07:21:32.671Z,17.00
2023-02-13T07:24:01.755Z,15.70
2023-02-13T07:26:30.515Z,14.57
2023-02-13T07:29:10.444Z,14.63
2023-02-13T07:31:41.307Z,15.07
2023-02-13T07:34:10.255Z,14.33
2023-02-13T07:36:38.995Z,14.60
2023-02-13T07:39:08.239Z,15.03
2023-02-13T07:41:36.955Z,13.90
2023-02-13T07:44:07.020Z,14.07
2023-02-13T07:46:36.187Z,12.50
2023-02-13T07:49:06.659Z,11.37
2023-02-13T07:51:35.491Z,11.40
2023-02-13T07:54:04.214Z,10.80
2023-02-13T07:56:33.007Z,10.53
2023-02-13T07:59:01.741Z,11.67
2023-02-13T08:01:30.833Z,11.90
2023-02-13T08:03:59.592Z,10.93
2023-02-13T08:06:29.713Z,11.23
2023-02-13T08:09:12.331Z,12.10
2023-02-13T08:11:56.313Z,9.47
2023-02-13T08:14:27.428Z,10.00
2023-02-13T08:16:56.626Z,10.00
2023-02-13T08:19:25.488Z,9.83
2023-02-13T08:21:55.639Z,9.80
2023-02-13T08:24:24.584Z,9.77
2023-02-13T08:26:53.542Z,9.73
2023-02-13T08:29:22.371Z,9.97
2023-02-13T08:31:51.330Z,10.07
2023-02-13T08:34:20.156Z,10.30
2023-02-13T08:36:48.870Z,11.57
2023-02-13T08:39:19.032Z,8.90
2023-02-13T08:41:47.841Z,8.60
2023-02-13T08:44:16.563Z,9.33
2023-02-13T08:46:45.314Z,8.77
2023-02-13T08:49:14.235Z,8.13
2023-02-13T08:51:43.020Z,8.60
2023-02-13T08:54:11.843Z,8.40
2023-02-13T08:56:44.061Z,8.33
2023-02-13T08:59:12.826Z,8.17
2023-02-13T09:01:42.758Z,8.27
2023-02-13T09:04:11.624Z,8.30
2023-02-13T09:06:40.490Z,7.40
2023-02-13T09:09:09.371Z,8.13
2023-02-13T09:11:38.216Z,9.03
2023-02-13T09:14:08.391Z,8.10
2023-02-13T09:16:37.184Z,7.00
2023-02-13T09:19:06.086Z,8.10
2023-02-13T09:21:35.110Z,7.23
2023-02-13T09:24:03.825Z,7.50
2023-02-13T09:26:32.590Z,7.10
2023-02-13T09:29:01.338Z,10.10
2023-02-13T09:31:31.781Z,7.00
2023-02-13T09:34:00.637Z,11.10
2023-02-13T09:36:29.360Z,12.07
2023-02-13T09:38:59.006Z,12.73
2023-02-13T09:41:30.423Z,10.57
2023-02-13T09:44:02.460Z,7.10
2023-02-13T09:46:36.125Z,6.90
2023-02-13T09:49:11.087Z,6.93
2023-02-13T09:51:40.038Z,7.80
2023-02-13T09:54:10.207Z,7.90
2023-02-13T09:56:49.502Z,6.93
2023-02-13T09:59:34.818Z,7.43
2023-02-13T10:02:24.516Z,7.57
2023-02-13T10:05:02.090Z,7.90
2023-02-13T10:07:40.691Z,6.80
2023-02-13T10:10:20.262Z,7.13
2023-02-13T10:12:58.109Z,7.23
2023-02-13T10:15:35.415Z,7.60
2023-02-13T10:18:11.128Z,7.50
2023-02-13T10:20:45.380Z,7.07
2023-02-13T10:23:25.170Z,6.87
2023-02-13T10:25:58.608Z,7.90
2023-02-13T10:28:36.279Z,7.40
2023-02-13T10:31:08.359Z,7.17
2023-02-13T10:33:47.774Z,7.07
2023-02-13T10:36:22.251Z,7.07
2023-02-13T10:38:58.457Z,7.10
2023-02-13T10:41:38.028Z,8.00
2023-02-13T10:44:24.245Z,6.77
2023-02-13T10:47:03.253Z,7.47
2023-02-13T10:49:56.542Z,6.83
2023-02-13T10:52:36.193Z,6.57
2023-02-13T10:55:20.508Z,7.07
2023-02-13T10:58:06.717Z,6.87
2023-02-13T11:00:40.953Z,7.20
2023-02-13T11:03:19.100Z,7.17
2023-02-13T11:05:50.494Z,7.03
2023-02-13T11:08:23.065Z,6.20
2023-02-13T11:10:52.927Z,6.23
2023-02-13T11:13:23.544Z,6.50
2023-02-13T11:16:01.991Z,7.40
2023-02-13T11:18:34.400Z,7.07
2023-02-13T11:21:09.650Z,4.80
2023-02-13T11:23:43.783Z,5.33
2023-02-13T11:26:16.130Z,5.33
2023-02-13T11:28:52.570Z,4.97
2023-02-13T11:31:26.111Z,4.77
2023-02-13T11:33:57.404Z,5.10
2023-02-13T11:36:31.402Z,5.20
2023-02-13T11:39:05.398Z,5.33
2023-02-13T11:41:41.064Z,6.00
2023-02-13T11:44:23.346Z,6.00
2023-02-13T11:46:53.632Z,5.93
2023-02-13T11:49:25.034Z,7.40
2023-02-13T11:51:56.545Z,6.47
2023-02-13T11:54:30.518Z,6.93
2023-02-13T11:57:04.387Z,6.07
2023-02-13T11:59:41.334Z,6.50
2023-02-13T12:02:22.222Z,6.17
2023-02-13T12:04:53.334Z,6.20
2023-02-13T12:07:27.076Z,5.67
2023-02-13T12:10:02.396Z,6.17
2023-02-13T12:12:38.771Z,5.87
2023-02-13T12:15:17.897Z,8.73
2023-02-13T12:17:48.442Z,19.47
2023-02-13T12:20:18.539Z,13.73
2023-02-13T12:23:02.437Z,30.67
2023-02-13T12:25:43.600Z,9.70
2023-02-13T12:28:16.227Z,7.73
2023-02-13T12:31:08.631Z,7.13
2023-02-13T12:34:01.179Z,6.33
2023-02-13T12:36:37.182Z,7.40
2023-02-13T12:39:19.054Z,6.63
2023-02-13T12:42:00.138Z,6.07
2023-02-13T12:44:50.173Z,6.40
2023-02-13T12:47:22.343Z,6.83
2023-02-13T12:50:24.495Z,6.50
2023-02-13T12:53:05.029Z,7.40
2023-02-13T12:55:51.362Z,6.30
2023-02-13T12:58:38.308Z,6.07
2023-02-13T13:01:20.289Z,6.43
2023-02-13T13:04:01.359Z,6.33
2023-02-13T13:06:53.440Z,6.73
2023-02-13T13:09:36.955Z,6.97
2023-02-13T13:12:22.518Z,8.23
2023-02-13T13:14:58.230Z,7.80
2023-02-13T13:17:41.306Z,7.23
2023-02-13T13:20:36.487Z,7.83
2023-02-13T13:23:11.342Z,8.80
2023-02-13T13:25:50.175Z,7.80
2023-02-13T13:28:23.667Z,8.00
2023-02-13T13:30:53.713Z,7.20
2023-02-13T13:33:24.613Z,6.67
2023-02-13T13:36:02.627Z,6.47
2023-02-13T13:38:46.824Z,6.87
2023-02-13T13:41:21.226Z,8.00
2023-02-13T13:44:04.369Z,6.47
2023-02-13T13:46:45.685Z,6.60
2023-02-13T13:49:26.104Z,6.67
2023-02-13T13:51:54.974Z,6.40
2023-02-13T13:54:36.665Z,6.77
2023-02-13T13:57:12.438Z,6.67
2023-02-13T14:00:27.118Z,7.70
2023-02-13T14:03:24.939Z,6.93
2023-02-13T14:06:06.577Z,7.60
2023-02-13T14:09:07.425Z,7.47
2023-02-13T14:11:42.522Z,8.33
2023-02-13T14:14:45.254Z,8.30
2023-02-13T14:17:18.198Z,7.93
2023-02-13T14:19:52.838Z,7.70
2023-02-13T14:22:34.606Z,8.67
2023-02-13T14:25:05.578Z,7.33
2023-02-13T14:27:37.336Z,10.37
2023-02-13T14:30:09.093Z,8.23
2023-02-13T14:32:41.125Z,8.00
2023-02-13T14:35:19.838Z,7.30
2023-02-13T14:37:52.532Z,7.33
2023-02-13T14:40:33.999Z,8.67
2023-02-13T14:43:35.221Z,10.80
2023-02-13T14:46:28.895Z,7.83
2023-02-13T14:49:04.303Z,7.20
2023-02-13T14:51:37.068Z,7.17
2023-02-13T14:54:16.963Z,5.87
2023-02-13T14:56:48.335Z,5.80
2023-02-13T14:59:19.791Z,6.90
2023-02-13T15:01:53.394Z,6.60
2023-02-13T15:04:33.161Z,6.17
2023-02-13T15:07:04.960Z,5.53
2023-02-13T15:09:38.956Z,6.07
2023-02-13T15:12:26.377Z,5.47
2023-02-13T15:14:55.301Z,6.13
2023-02-13T15:17:29.294Z,6.33
2023-02-13T15:20:09.940Z,5.40
2023-02-13T15:22:42.475Z,6.20
2023-02-13T15:25:23.917Z,6.87
2023-02-13T15:27:55.402Z,6.60
2023-02-13T15:30:26.461Z,5.07
2023-02-13T15:32:56.312Z,5.73
2023-02-13T15:35:29.375Z,5.67
2023-02-13T15:37:58.664Z,6.07
2023-02-13T15:40:29.263Z,6.03
2023-02-13T15:42:58.858Z,5.07
2023-02-13T15:45:30.283Z,5.57
2023-02-13T15:47:59.272Z,6.03
2023-02-13T15:50:32.011Z,5.93
2023-02-13T15:53:03.909Z,5.70
2023-02-13T15:55:36.298Z,6.10
2023-02-13T15:58:05.611Z,5.17
2023-02-13T16:00:36.287Z,5.40
2023-02-13T16:03:07.962Z,5.17
2023-02-13T16:05:41.533Z,5.33
2023-02-13T16:08:36.130Z,5.67
2023-02-13T16:11:28.645Z,5.70
2023-02-13T16:14:03.490Z,5.47
2023-02-13T16:16:36.008Z,5.97
2023-02-13T16:19:05.168Z,5.83
2023-02-13T16:21:36.002Z,5.70
2023-02-13T16:24:07.743Z,5.50
2023-02-13T16:26:39.298Z,6.00
2023-02-13T16:29:12.033Z,6.27
2023-02-13T16:31:41.540Z,6.43
2023-02-13T16:34:24.068Z,5.80
2023-02-13T16:36:54.836Z,6.27
2023-02-13T16:39:28.664Z,6.20
2023-02-13T16:41:58.086Z,6.30
2023-02-13T16:44:29.939Z,5.80
2023-02-13T16:47:01.493Z,6.37
2023-02-13T16:49:33.329Z,6.00
2023-02-13T16:52:12.325Z,5.77
2023-02-13T16:54:50.002Z,5.63
2023-02-13T16:57:23.627Z,5.70
2023-02-13T16:59:56.749Z,6.13
2023-02-13T17:02:27.043Z,6.30
2023-02-13T17:04:59.321Z,5.80
2023-02-13T17:07:31.330Z,5.67
2023-02-13T17:10:02.172Z,5.80
2023-02-13T17:12:35.591Z,5.93
2023-02-13T17:15:05.157Z,5.40
2023-02-13T17:17:34.352Z,6.00
2023-02-13T17:20:04.371Z,6.60
2023-02-13T17:22:36.970Z,5.63
2023-02-13T17:25:08.834Z,5.57
2023-02-13T17:27:37.634Z,6.60
2023-02-13T17:30:07.788Z,6.20
2023-02-13T17:32:37.858Z,5.73
2023-02-13T17:35:07.131Z,6.00
2023-02-13T17:37:42.190Z,5.87
2023-02-13T17:40:17.151Z,6.53
2023-02-13T17:42:47.568Z,6.30
2023-02-13T17:45:18.211Z,6.37
2023-02-13T17:47:47.192Z,6.20
2023-02-13T17:50:18.251Z,6.77
2023-02-13T17:52:49.880Z,6.17
2023-02-13T17:55:21.219Z,6.82
2023-02-13T17:57:50.258Z,6.30
2023-02-13T18:00:20.153Z,6.10
2023-02-13T18:02:49.817Z,5.90
2023-02-13T18:05:20.029Z,6.63
2023-02-13T18:07:50.500Z,6.67
2023-02-13T18:10:21.215Z,6.83
2023-02-13T18:12:50.888Z,6.67
2023-02-13T18:15:20.640Z,6.43
2023-02-13T18:17:49.882Z,6.63
2023-02-13T18:20:21.351Z,6.90
2023-02-13T18:22:51.675Z,7.13
2023-02-13T18:25:21.272Z,7.57
2023-02-13T18:27:50.132Z,7.20
2023-02-13T18:30:21.150Z,7.17
2023-02-13T18:32:53.968Z,7.47
2023-02-13T18:35:23.773Z,6.97
2023-02-13T18:37:54.002Z,8.03
2023-02-13T18:40:23.168Z,8.33
2023-02-13T18:42:52.470Z,7.53
2023-02-13T18:45:21.249Z,8.53
2023-02-13T18:47:50.084Z,8.47
2023-02-13T18:50:18.990Z,8.50
2023-02-13T18:52:47.828Z,8.13
2023-02-13T18:55:18.137Z,8.00
2023-02-13T18:57:47.976Z,8.83
2023-02-13T19:00:18.269Z,8.17
2023-02-13T19:02:47.077Z,9.23
2023-02-13T19:05:15.961Z,8.70
2023-02-13T19:07:44.677Z,9.10
2023-02-13T19:10:14.855Z,8.10
2023-02-13T19:12:45.145Z,8.27
2023-02-13T19:15:14.043Z,8.27
2023-02-13T19:17:43.886Z,8.30
2023-02-13T19:20:16.529Z,9.13
2023-02-13T19:22:45.586Z,8.80
2023-02-13T19:25:14.332Z,8.33
2023-02-13T19:27:44.470Z,8.77
2023-02-13T19:30:14.012Z,8.87
2023-02-13T19:32:42.819Z,8.97
2023-02-13T19:35:11.572Z,8.60
2023-02-13T19:37:44.326Z,8.97
2023-02-13T19:40:14.752Z,8.30
2023-02-13T19:42:44.925Z,9.10
2023-02-13T19:45:13.702Z,8.23
2023-02-13T19:47:42.645Z,7.50
2023-02-13T19:50:11.832Z,7.53
2023-02-13T19:52:40.591Z,7.37
2023-02-13T19:55:09.739Z,6.97
2023-02-13T19:57:38.492Z,7.30
2023-02-13T20:00:10.150Z,7.80
2023-02-13T20:02:41.549Z,6.57
2023-02-13T20:05:10.496Z,6.13
2023-02-13T20:07:39.248Z,7.13
2023-02-13T20:10:10.377Z,5.93
2023-02-13T20:12:39.409Z,5.90
2023-02-13T20:15:10.304Z,5.87
2023-02-13T20:17:39.249Z,5.63
2023-02-13T20:20:09.152Z,6.27
2023-02-13T20:22:37.951Z,6.23
2023-02-13T20:25:07.172Z,5.90
2023-02-13T20:27:41.962Z,6.80
2023-02-13T20:30:16.242Z,6.03
2023-02-13T20:32:45.200Z,5.83
2023-02-13T20:35:14.074Z,5.80
2023-02-13T20:37:43.387Z,6.13
2023-02-13T20:40:12.935Z,5.30
2023-02-13T20:42:41.682Z,5.43
2023-02-13T20:45:12.138Z,6.30
2023-02-13T20:47:42.856Z,6.23
2023-02-13T20:50:12.034Z,5.77
2023-02-13T20:52:41.124Z,6.53
2023-02-13T20:55:09.936Z,6.53
2023-02-13T20:57:38.769Z,6.13
2023-02-13T21:00:09.419Z,6.70
2023-02-13T21:02:39.630Z,19.30
2023-02-13T21:05:08.854Z,34.03
2023-02-13T21:07:37.636Z,7.83
2023-02-13T21:10:07.524Z,7.57
2023-02-13T21:12:36.478Z,7.73
2023-02-13T21:15:05.531Z,8.33
2023-02-13T21:17:34.265Z,7.63
2023-02-13T21:20:05.995Z,7.20
2023-02-13T21:22:34.771Z,7.20
2023-02-13T21:25:03.672Z,7.37
2023-02-13T21:27:32.477Z,7.13
2023-02-13T21:30:01.293Z,6.80
2023-02-13T21:32:30.175Z,7.40
2023-02-13T21:34:59.009Z,7.50
2023-02-13T21:37:30.422Z,7.50
2023-02-13T21:39:59.169Z,7.53
2023-02-13T21:42:28.086Z,8.23
2023-02-13T21:44:56.838Z,7.53
2023-02-13T21:47:25.743Z,8.63
2023-02-13T21:49:54.484Z,9.00
2023-02-13T21:52:24.086Z,9.43
2023-02-13T21:54:54.274Z,9.60
2023-02-13T21:57:23.085Z,10.23
2023-02-13T21:59:51.810Z,10.03
2023-02-13T22:02:20.912Z,9.87
2023-02-13T22:04:49.832Z,10.03
2023-02-13T22:07:18.611Z,10.67
2023-02-13T22:09:47.428Z,10.43
2023-02-13T22:12:17.547Z,11.03
2023-02-13T22:14:46.298Z,9.70
2023-02-13T22:17:15.100Z,10.40
2023-02-13T22:19:43.822Z,10.97
2023-02-13T22:22:12.656Z,10.87
2023-02-13T22:24:41.396Z,11.10
2023-02-13T22:27:10.173Z,11.50
2023-02-13T22:29:41.055Z,11.40
2023-02-13T22:32:10.279Z,10.63
2023-02-13T22:34:39.181Z,10.57
2023-02-13T22:37:09.410Z,10.90
2023-02-13T22:39:39.637Z,11.37
2023-02-13T22:42:08.397Z,11.70
2023-02-13T22:44:37.228Z,10.93
2023-02-13T22:47:07.482Z,11.57
2023-02-13T22:49:36.429Z,11.87
2023-02-13T22:52:05.328Z,11.70
2023-02-13T22:54:34.130Z,11.83
2023-02-13T22:57:02.885Z,11.80
2023-02-13T22:59:37.748Z,11.37
2023-02-13T23:02:08.973Z,12.07
2023-02-13T23:04:37.852Z,12.97
2023-02-13T23:07:06.584Z,15.10
2023-02-13T23:09:35.402Z,15.40
2023-02-13T23:12:21.557Z,14.50
2023-02-13T23:14:50.363Z,15.13
2023-02-13T23:17:37.657Z,16.23
2023-02-13T23:20:07.784Z,16.63
2023-02-13T23:22:36.718Z,17.00
2023-02-13T23:25:06.382Z,17.03
2023-02-13T23:27:36.290Z,17.60
2023-02-13T23:30:06.745Z,17.20
2023-02-13T23:32:37.045Z,16.80
2023-02-13T23:35:06.301Z,15.63
2023-02-13T23:37:35.053Z,14.43
2023-02-13T23:40:04.343Z,12.33
2023-02-13T23:42:33.137Z,12.07
2023-02-13T23:45:01.906Z,10.93
2023-02-13T23:47:30.630Z,10.90
2023-02-13T23:50:00.814Z,10.47
2023-02-13T23:52:29.768Z,10.93
2023-02-13T23:54:58.623Z,10.40
2023-02-13T23:57:27.367Z,10.33
2023-02-13T23:59:56.189Z,10.80
